sensor_id;sensor_type;location;lat;lon;timestamp;P1;durP1;ratioP1;P2;durP2;ratioP2
77384;SDS011;66443;49.122;8.346;2023-09-19T00:00:58;0.00;;;0.00;;
77384;SDS011;66443;49.122;8.346;2023-09-19T00:03:24;13.03;;;0.83;;
77384;SDS011;66443;49.122;8.346;2023-09-19T00:05:50;0.63;;;0.63;;
77384;SDS011;66443;49.122;8.346;2023-09-19T00:08:15;0.10;;;0.10;;
77384;SDS011;66443;49.122;8.346;2023-09-19T00:10:41;0.17;;;0.17;;
77384;SDS011;66443;49.122;8.346;2023-09-19T00:13:07;0.10;;;0.10;;
77384;SDS011;66443;49.122;8.346;2023-09-19T00:15:39;2.57;;;0.40;;
77384;SDS011;66443;49.122;8.346;2023-09-19T00:18:05;0.10;;;0.10;;
77384;SDS011;66443;49.122;8.346;2023-09-19T00:20:36;0.10;;;0.10;;
77384;SDS011;66443;49.122;8.346;2023-09-19T00:23:02;2.70;;;0.33;;
77384;SDS011;66443;49.122;8.346;2023-09-19T00:25:30;0.10;;;0.10;;
77384;SDS011;66443;49.122;8.346;2023-09-19T00:27:57;0.10;;;0.10;;
77384;SDS011;66443;49.122;8.346;2023-09-19T00:30:23;0.30;;;0.30;;
77384;SDS011;66443;49.122;8.346;2023-09-19T00:32:49;0.10;;;0.10;;
77384;SDS011;66443;49.122;8.346;2023-09-19T00:35:17;0.10;;;0.10;;
77384;SDS011;66443;49.122;8.346;2023-09-19T00:37:42;0.10;;;0.10;;
77384;SDS011;66443;49.122;8.346;2023-09-19T00:40:08;0.20;;;0.20;;
77384;SDS011;66443;49.122;8.346;2023-09-19T00:42:41;0.10;;;0.10;;
77384;SDS011;66443;49.122;8.346;2023-09-19T00:45:07;0.20;;;0.20;;
77384;SDS011;66443;49.122;8.346;2023-09-19T00:47:34;0.10;;;0.10;;
77384;SDS011;66443;49.122;8.346;2023-09-19T00:50:00;0.10;;;0.10;;
77384;SDS011;66443;49.122;8.346;2023-09-19T00:52:25;0.10;;;0.10;;
77384;SDS011;66443;49.122;8.346;2023-09-19T00:54:50;0.10;;;0.10;;
77384;SDS011;66443;49.122;8.346;2023-09-19T00:57:15;0.30;;;0.13;;
77384;SDS011;66443;49.122;8.346;2023-09-19T00:59:44;0.10;;;0.10;;
77384;SDS011;66443;49.122;8.346;2023-09-19T01:02:09;0.10;;;0.10;;
77384;SDS011;66443;49.122;8.346;2023-09-19T01:04:35;0.17;;;0.17;;
77384;SDS011;66443;49.122;8.346;2023-09-19T01:07:01;0.10;;;0.10;;
77384;SDS011;66443;49.122;8.346;2023-09-19T01:09:26;0.10;;;0.10;;
77384;SDS011;66443;49.122;8.346;2023-09-19T01:11:52;0.53;;;0.53;;
77384;SDS011;66443;49.122;8.346;2023-09-19T01:17:03;0.30;;;0.30;;
77384;SDS011;66443;49.122;8.346;2023-09-19T01:22:21;0.20;;;0.20;;
77384;SDS011;66443;49.122;8.346;2023-09-19T01:25:05;0.10;;;0.10;;
77384;SDS011;66443;49.122;8.346;2023-09-19T01:30:14;0.10;;;0.10;;
77384;SDS011;66443;49.122;8.346;2023-09-19T01:32:42;0.13;;;0.10;;
77384;SDS011;66443;49.122;8.346;2023-09-19T01:35:08;0.10;;;0.10;;
77384;SDS011;66443;49.122;8.346;2023-09-19T01:37:37;0.20;;;0.20;;
77384;SDS011;66443;49.122;8.346;2023-09-19T01:40:06;0.47;;;0.47;;
77384;SDS011;66443;49.122;8.346;2023-09-19T01:47:37;0.20;;;0.20;;
77384;SDS011;66443;49.122;8.346;2023-09-19T01:50:09;0.37;;;0.37;;
77384;SDS011;66443;49.122;8.346;2023-09-19T01:52:36;0.40;;;0.40;;
77384;SDS011;66443;49.122;8.346;2023-09-19T01:55:05;0.10;;;0.10;;
77384;SDS011;66443;49.122;8.346;2023-09-19T01:57:34;0.10;;;0.10;;
77384;SDS011;66443;49.122;8.346;2023-09-19T02:00:01;0.10;;;0.10;;
77384;SDS011;66443;49.122;8.346;2023-09-19T02:02:31;2.40;;;0.30;;
77384;SDS011;66443;49.122;8.346;2023-09-19T02:04:57;0.40;;;0.40;;
77384;SDS011;66443;49.122;8.346;2023-09-19T02:07:22;0.23;;;0.23;;
77384;SDS011;66443;49.122;8.346;2023-09-19T02:09:47;0.20;;;0.20;;
77384;SDS011;66443;49.122;8.346;2023-09-19T02:12:13;0.20;;;0.20;;
77384;SDS011;66443;49.122;8.346;2023-09-19T02:14:40;0.10;;;0.10;;
77384;SDS011;66443;49.122;8.346;2023-09-19T02:17:05;0.03;;;0.03;;
77384;SDS011;66443;49.122;8.346;2023-09-19T02:19:36;0.10;;;0.10;;
77384;SDS011;66443;49.122;8.346;2023-09-19T02:22:03;0.20;;;0.20;;
77384;SDS011;66443;49.122;8.346;2023-09-19T02:24:33;0.40;;;0.40;;
77384;SDS011;66443;49.122;8.346;2023-09-19T02:26:58;0.00;;;0.00;;
77384;SDS011;66443;49.122;8.346;2023-09-19T02:29:24;0.10;;;0.10;;
77384;SDS011;66443;49.122;8.346;2023-09-19T02:31:49;0.10;;;0.10;;
77384;SDS011;66443;49.122;8.346;2023-09-19T02:34:14;0.52;;;0.52;;
77384;SDS011;66443;49.122;8.346;2023-09-19T02:36:41;0.10;;;0.10;;
77384;SDS011;66443;49.122;8.346;2023-09-19T02:39:09;0.10;;;0.10;;
77384;SDS011;66443;49.122;8.346;2023-09-19T02:41:36;0.10;;;0.10;;
77384;SDS011;66443;49.122;8.346;2023-09-19T02:44:01;0.10;;;0.10;;
77384;SDS011;66443;49.122;8.346;2023-09-19T02:46:26;0.00;;;0.00;;
77384;SDS011;66443;49.122;8.346;2023-09-19T02:48:52;0.83;;;0.50;;
77384;SDS011;66443;49.122;8.346;2023-09-19T02:51:17;0.57;;;0.57;;
77384;SDS011;66443;49.122;8.346;2023-09-19T02:53:42;0.47;;;0.47;;
77384;SDS011;66443;49.122;8.346;2023-09-19T02:56:07;0.20;;;0.20;;
77384;SDS011;66443;49.122;8.346;2023-09-19T02:58:34;0.93;;;0.70;;
77384;SDS011;66443;49.122;8.346;2023-09-19T03:01:07;0.10;;;0.10;;
77384;SDS011;66443;49.122;8.346;2023-09-19T03:03:33;0.20;;;0.20;;
77384;SDS011;66443;49.122;8.346;2023-09-19T03:05:58;0.57;;;0.33;;
77384;SDS011;66443;49.122;8.346;2023-09-19T03:08:23;0.77;;;0.77;;
77384;SDS011;66443;49.122;8.346;2023-09-19T03:10:49;0.30;;;0.30;;
77384;SDS011;66443;49.122;8.346;2023-09-19T03:13:15;0.27;;;0.27;;
77384;SDS011;66443;49.122;8.346;2023-09-19T03:15:41;0.20;;;0.20;;
77384;SDS011;66443;49.122;8.346;2023-09-19T03:18:08;0.27;;;0.27;;
77384;SDS011;66443;49.122;8.346;2023-09-19T03:20:33;0.30;;;0.30;;
77384;SDS011;66443;49.122;8.346;2023-09-19T03:22:58;0.17;;;0.17;;
77384;SDS011;66443;49.122;8.346;2023-09-19T03:25:25;0.30;;;0.30;;
77384;SDS011;66443;49.122;8.346;2023-09-19T03:27:50;0.20;;;0.20;;
77384;SDS011;66443;49.122;8.346;2023-09-19T03:30:15;0.10;;;0.10;;
77384;SDS011;66443;49.122;8.346;2023-09-19T03:32:48;0.10;;;0.10;;
77384;SDS011;66443;49.122;8.346;2023-09-19T03:35:15;0.03;;;0.03;;
77384;SDS011;66443;49.122;8.346;2023-09-19T03:37:40;0.87;;;0.87;;
77384;SDS011;66443;49.122;8.346;2023-09-19T03:40:07;0.10;;;0.10;;
77384;SDS011;66443;49.122;8.346;2023-09-19T03:42:32;0.10;;;0.10;;
77384;SDS011;66443;49.122;8.346;2023-09-19T03:44:57;0.73;;;0.50;;
77384;SDS011;66443;49.122;8.346;2023-09-19T03:47:22;0.10;;;0.10;;
77384;SDS011;66443;49.122;8.346;2023-09-19T03:49:48;0.10;;;0.10;;
77384;SDS011;66443;49.122;8.346;2023-09-19T03:52:13;0.20;;;0.20;;
77384;SDS011;66443;49.122;8.346;2023-09-19T03:54:40;0.40;;;0.40;;
77384;SDS011;66443;49.122;8.346;2023-09-19T03:57:06;0.50;;;0.50;;
77384;SDS011;66443;49.122;8.346;2023-09-19T03:59:31;0.43;;;0.43;;
77384;SDS011;66443;49.122;8.346;2023-09-19T04:01:57;0.50;;;0.50;;
77384;SDS011;66443;49.122;8.346;2023-09-19T04:04:23;0.03;;;0.03;;
77384;SDS011;66443;49.122;8.346;2023-09-19T04:06:50;0.20;;;0.20;;
77384;SDS011;66443;49.122;8.346;2023-09-19T04:09:15;0.10;;;0.10;;
77384;SDS011;66443;49.122;8.346;2023-09-19T04:11:40;0.67;;;0.67;;
77384;SDS011;66443;49.122;8.346;2023-09-19T04:14:06;0.50;;;0.50;;
77384;SDS011;66443;49.122;8.346;2023-09-19T04:16:31;0.20;;;0.20;;
77384;SDS011;66443;49.122;8.346;2023-09-19T04:18:56;17.53;;;0.53;;
77384;SDS011;66443;49.122;8.346;2023-09-19T04:21:21;0.30;;;0.30;;
77384;SDS011;66443;49.122;8.346;2023-09-19T04:23:46;0.10;;;0.10;;
77384;SDS011;66443;49.122;8.346;2023-09-19T04:26:12;0.63;;;0.63;;
77384;SDS011;66443;49.122;8.346;2023-09-19T04:28:37;0.30;;;0.30;;
77384;SDS011;66443;49.122;8.346;2023-09-19T04:31:03;0.50;;;0.50;;
77384;SDS011;66443;49.122;8.346;2023-09-19T04:33:28;0.47;;;0.47;;
77384;SDS011;66443;49.122;8.346;2023-09-19T04:35:53;0.10;;;0.10;;
77384;SDS011;66443;49.122;8.346;2023-09-19T04:38:19;0.57;;;0.57;;
77384;SDS011;66443;49.122;8.346;2023-09-19T04:40:44;0.40;;;0.40;;
77384;SDS011;66443;49.122;8.346;2023-09-19T04:43:09;0.20;;;0.20;;
77384;SDS011;66443;49.122;8.346;2023-09-19T04:45:35;0.20;;;0.20;;
77384;SDS011;66443;49.122;8.346;2023-09-19T04:48:00;0.37;;;0.37;;
77384;SDS011;66443;49.122;8.346;2023-09-19T04:50:25;0.20;;;0.20;;
77384;SDS011;66443;49.122;8.346;2023-09-19T04:52:51;0.90;;;0.90;;
77384;SDS011;66443;49.122;8.346;2023-09-19T04:55:17;0.10;;;0.10;;
77384;SDS011;66443;49.122;8.346;2023-09-19T04:57:47;0.30;;;0.30;;
77384;SDS011;66443;49.122;8.346;2023-09-19T05:00:13;0.30;;;0.30;;
77384;SDS011;66443;49.122;8.346;2023-09-19T05:02:39;0.33;;;0.33;;
77384;SDS011;66443;49.122;8.346;2023-09-19T05:05:05;0.97;;;0.93;;
77384;SDS011;66443;49.122;8.346;2023-09-19T05:07:31;0.10;;;0.10;;
77384;SDS011;66443;49.122;8.346;2023-09-19T05:09:56;0.57;;;0.57;;
77384;SDS011;66443;49.122;8.346;2023-09-19T05:12:21;0.33;;;0.33;;
77384;SDS011;66443;49.122;8.346;2023-09-19T05:14:46;0.40;;;0.40;;
77384;SDS011;66443;49.122;8.346;2023-09-19T05:17:12;0.20;;;0.20;;
77384;SDS011;66443;49.122;8.346;2023-09-19T05:19:38;0.10;;;0.10;;
77384;SDS011;66443;49.122;8.346;2023-09-19T05:22:03;0.27;;;0.20;;
77384;SDS011;66443;49.122;8.346;2023-09-19T05:24:29;0.83;;;0.83;;
77384;SDS011;66443;49.122;8.346;2023-09-19T05:26:55;0.33;;;0.33;;
77384;SDS011;66443;49.122;8.346;2023-09-19T05:29:21;0.30;;;0.30;;
77384;SDS011;66443;49.122;8.346;2023-09-19T05:31:46;4.43;;;0.33;;
77384;SDS011;66443;49.122;8.346;2023-09-19T05:34:11;0.23;;;0.23;;
77384;SDS011;66443;49.122;8.346;2023-09-19T05:36:36;0.40;;;0.40;;
77384;SDS011;66443;49.122;8.346;2023-09-19T05:39:02;0.20;;;0.20;;
77384;SDS011;66443;49.122;8.346;2023-09-19T05:41:27;0.30;;;0.30;;
77384;SDS011;66443;49.122;8.346;2023-09-19T05:43:52;0.40;;;0.40;;
77384;SDS011;66443;49.122;8.346;2023-09-19T05:46:17;0.30;;;0.30;;
77384;SDS011;66443;49.122;8.346;2023-09-19T05:48:42;0.30;;;0.30;;
77384;SDS011;66443;49.122;8.346;2023-09-19T05:51:09;0.63;;;0.63;;
77384;SDS011;66443;49.122;8.346;2023-09-19T05:53:34;0.30;;;0.30;;
77384;SDS011;66443;49.122;8.346;2023-09-19T05:56:00;0.33;;;0.33;;
77384;SDS011;66443;49.122;8.346;2023-09-19T05:58:26;0.30;;;0.30;;
77384;SDS011;66443;49.122;8.346;2023-09-19T06:00:51;0.57;;;0.57;;
77384;SDS011;66443;49.122;8.346;2023-09-19T06:03:17;0.33;;;0.33;;
77384;SDS011;66443;49.122;8.346;2023-09-19T06:05:43;0.93;;;0.60;;
77384;SDS011;66443;49.122;8.346;2023-09-19T06:08:11;0.20;;;0.20;;
77384;SDS011;66443;49.122;8.346;2023-09-19T06:10:37;0.10;;;0.10;;
77384;SDS011;66443;49.122;8.346;2023-09-19T06:13:02;0.67;;;0.67;;
77384;SDS011;66443;49.122;8.346;2023-09-19T06:15:29;0.10;;;0.10;;
77384;SDS011;66443;49.122;8.346;2023-09-19T06:17:57;0.20;;;0.20;;
77384;SDS011;66443;49.122;8.346;2023-09-19T06:20:25;0.33;;;0.33;;
77384;SDS011;66443;49.122;8.346;2023-09-19T06:22:50;0.50;;;0.50;;
77384;SDS011;66443;49.122;8.346;2023-09-19T06:25:16;0.40;;;0.40;;
77384;SDS011;66443;49.122;8.346;2023-09-19T06:27:45;0.67;;;0.67;;
77384;SDS011;66443;49.122;8.346;2023-09-19T06:30:10;1.27;;;0.53;;
77384;SDS011;66443;49.122;8.346;2023-09-19T06:32:36;0.20;;;0.20;;
77384;SDS011;66443;49.122;8.346;2023-09-19T06:35:01;0.57;;;0.57;;
77384;SDS011;66443;49.122;8.346;2023-09-19T06:37:28;0.50;;;0.50;;
77384;SDS011;66443;49.122;8.346;2023-09-19T06:39:53;0.20;;;0.20;;
77384;SDS011;66443;49.122;8.346;2023-09-19T06:42:18;0.10;;;0.10;;
77384;SDS011;66443;49.122;8.346;2023-09-19T06:44:44;0.33;;;0.33;;
77384;SDS011;66443;49.122;8.346;2023-09-19T06:47:09;0.20;;;0.20;;
77384;SDS011;66443;49.122;8.346;2023-09-19T06:49:35;0.40;;;0.40;;
77384;SDS011;66443;49.122;8.346;2023-09-19T06:52:00;0.20;;;0.20;;
77384;SDS011;66443;49.122;8.346;2023-09-19T06:54:26;0.30;;;0.30;;
77384;SDS011;66443;49.122;8.346;2023-09-19T06:56:54;0.50;;;0.50;;
77384;SDS011;66443;49.122;8.346;2023-09-19T06:59:20;0.17;;;0.17;;
77384;SDS011;66443;49.122;8.346;2023-09-19T07:01:45;4.40;;;2.47;;
77384;SDS011;66443;49.122;8.346;2023-09-19T07:04:12;4.03;;;2.57;;
77384;SDS011;66443;49.122;8.346;2023-09-19T07:06:37;2.90;;;1.90;;
77384;SDS011;66443;49.122;8.346;2023-09-19T07:09:03;7.33;;;2.03;;
77384;SDS011;66443;49.122;8.346;2023-09-19T07:11:29;4.67;;;1.83;;
77384;SDS011;66443;49.122;8.346;2023-09-19T07:13:55;1.97;;;1.63;;
77384;SDS011;66443;49.122;8.346;2023-09-19T07:16:21;2.70;;;1.57;;
77384;SDS011;66443;49.122;8.346;2023-09-19T07:18:54;1.80;;;1.60;;
77384;SDS011;66443;49.122;8.346;2023-09-19T07:21:20;4.53;;;2.13;;
77384;SDS011;66443;49.122;8.346;2023-09-19T07:23:45;1.70;;;1.60;;
77384;SDS011;66443;49.122;8.346;2023-09-19T07:26:10;3.30;;;2.07;;
77384;SDS011;66443;49.122;8.346;2023-09-19T07:28:35;4.47;;;2.30;;
77384;SDS011;66443;49.122;8.346;2023-09-19T07:31:02;2.70;;;1.57;;
77384;SDS011;66443;49.122;8.346;2023-09-19T07:33:28;2.40;;;1.60;;
77384;SDS011;66443;49.122;8.346;2023-09-19T07:35:53;2.97;;;1.70;;
77384;SDS011;66443;49.122;8.346;2023-09-19T07:38:18;5.03;;;2.13;;
77384;SDS011;66443;49.122;8.346;2023-09-19T07:40:43;3.57;;;1.70;;
77384;SDS011;66443;49.122;8.346;2023-09-19T07:43:09;2.83;;;1.93;;
77384;SDS011;66443;49.122;8.346;2023-09-19T07:45:34;2.10;;;1.67;;
77384;SDS011;66443;49.122;8.346;2023-09-19T07:48:01;2.00;;;1.80;;
77384;SDS011;66443;49.122;8.346;2023-09-19T07:50:29;3.97;;;1.73;;
77384;SDS011;66443;49.122;8.346;2023-09-19T07:52:54;2.60;;;1.70;;
77384;SDS011;66443;49.122;8.346;2023-09-19T07:55:21;1.87;;;1.30;;
77384;SDS011;66443;49.122;8.346;2023-09-19T07:57:49;2.93;;;1.43;;
77384;SDS011;66443;49.122;8.346;2023-09-19T08:00:15;4.13;;;1.70;;
77384;SDS011;66443;49.122;8.346;2023-09-19T08:02:40;1.50;;;1.40;;
77384;SDS011;66443;49.122;8.346;2023-09-19T08:05:06;3.70;;;1.83;;
77384;SDS011;66443;49.122;8.346;2023-09-19T08:07:39;2.87;;;1.50;;
77384;SDS011;66443;49.122;8.346;2023-09-19T08:10:05;3.50;;;1.43;;
77384;SDS011;66443;49.122;8.346;2023-09-19T08:12:32;1.47;;;1.30;;
77384;SDS011;66443;49.122;8.346;2023-09-19T08:14:57;2.60;;;1.83;;
77384;SDS011;66443;49.122;8.346;2023-09-19T08:17:23;3.80;;;1.70;;
77384;SDS011;66443;49.122;8.346;2023-09-19T08:19:48;2.30;;;1.30;;
77384;SDS011;66443;49.122;8.346;2023-09-19T08:22:14;4.73;;;1.60;;
77384;SDS011;66443;49.122;8.346;2023-09-19T08:24:42;3.57;;;1.73;;
77384;SDS011;66443;49.122;8.346;2023-09-19T08:27:08;3.93;;;1.60;;
77384;SDS011;66443;49.122;8.346;2023-09-19T08:29:35;3.37;;;1.40;;
77384;SDS011;66443;49.122;8.346;2023-09-19T08:32:00;1.77;;;1.40;;
77384;SDS011;66443;49.122;8.346;2023-09-19T08:34:25;2.30;;;1.10;;
77384;SDS011;66443;49.122;8.346;2023-09-19T08:36:51;1.73;;;1.23;;
77384;SDS011;66443;49.122;8.346;2023-09-19T08:39:17;3.40;;;1.40;;
77384;SDS011;66443;49.122;8.346;2023-09-19T08:41:44;1.33;;;1.23;;
77384;SDS011;66443;49.122;8.346;2023-09-19T08:44:09;2.00;;;1.30;;
77384;SDS011;66443;49.122;8.346;2023-09-19T08:46:35;2.63;;;1.50;;
77384;SDS011;66443;49.122;8.346;2023-09-19T08:49:04;6.00;;;1.63;;
77384;SDS011;66443;49.122;8.346;2023-09-19T08:51:32;3.40;;;1.30;;
77384;SDS011;66443;49.122;8.346;2023-09-19T08:54:02;1.77;;;1.37;;
77384;SDS011;66443;49.122;8.346;2023-09-19T08:56:29;1.77;;;1.43;;
77384;SDS011;66443;49.122;8.346;2023-09-19T08:58:59;1.53;;;1.13;;
77384;SDS011;66443;49.122;8.346;2023-09-19T09:01:27;2.53;;;1.20;;
77384;SDS011;66443;49.122;8.346;2023-09-19T09:03:53;1.77;;;1.40;;
77384;SDS011;66443;49.122;8.346;2023-09-19T09:06:19;3.73;;;1.33;;
77384;SDS011;66443;49.122;8.346;2023-09-19T09:08:45;2.30;;;1.30;;
77384;SDS011;66443;49.122;8.346;2023-09-19T09:11:11;5.10;;;1.70;;
77384;SDS011;66443;49.122;8.346;2023-09-19T09:13:36;4.33;;;1.30;;
77384;SDS011;66443;49.122;8.346;2023-09-19T09:16:02;1.63;;;1.53;;
77384;SDS011;66443;49.122;8.346;2023-09-19T09:18:28;3.07;;;2.33;;
77384;SDS011;66443;49.122;8.346;2023-09-19T09:20:54;1.07;;;0.90;;
77384;SDS011;66443;49.122;8.346;2023-09-19T09:23:20;1.90;;;1.10;;
77384;SDS011;66443;49.122;8.346;2023-09-19T09:25:46;1.40;;;1.30;;
77384;SDS011;66443;49.122;8.346;2023-09-19T09:28:12;2.57;;;1.30;;
77384;SDS011;66443;49.122;8.346;2023-09-19T09:30:44;3.47;;;2.07;;
77384;SDS011;66443;49.122;8.346;2023-09-19T09:33:10;2.40;;;1.20;;
77384;SDS011;66443;49.122;8.346;2023-09-19T09:35:36;1.80;;;1.27;;
77384;SDS011;66443;49.122;8.346;2023-09-19T09:38:01;2.63;;;1.20;;
77384;SDS011;66443;49.122;8.346;2023-09-19T09:40:45;3.40;;;1.30;;
77384;SDS011;66443;49.122;8.346;2023-09-19T09:43:31;3.03;;;1.30;;
77384;SDS011;66443;49.122;8.346;2023-09-19T09:46:14;2.47;;;0.90;;
77384;SDS011;66443;49.122;8.346;2023-09-19T09:49:03;1.87;;;1.07;;
77384;SDS011;66443;49.122;8.346;2023-09-19T09:51:50;2.00;;;1.33;;
77384;SDS011;66443;49.122;8.346;2023-09-19T09:54:26;1.57;;;1.00;;
77384;SDS011;66443;49.122;8.346;2023-09-19T09:57:10;4.60;;;1.33;;
77384;SDS011;66443;49.122;8.346;2023-09-19T09:59:54;2.90;;;1.10;;
77384;SDS011;66443;49.122;8.346;2023-09-19T10:02:27;1.60;;;1.23;;
77384;SDS011;66443;49.122;8.346;2023-09-19T10:07:45;2.40;;;1.60;;
77384;SDS011;66443;49.122;8.346;2023-09-19T10:10:35;3.23;;;1.00;;
77384;SDS011;66443;49.122;8.346;2023-09-19T10:13:19;2.23;;;1.30;;
77384;SDS011;66443;49.122;8.346;2023-09-19T10:15:49;2.00;;;1.17;;
77384;SDS011;66443;49.122;8.346;2023-09-19T10:18:20;2.33;;;1.63;;
77384;SDS011;66443;49.122;8.346;2023-09-19T10:20:46;2.97;;;1.13;;
77384;SDS011;66443;49.122;8.346;2023-09-19T10:23:11;2.27;;;1.23;;
77384;SDS011;66443;49.122;8.346;2023-09-19T10:25:45;2.93;;;1.33;;
77384;SDS011;66443;49.122;8.346;2023-09-19T10:28:12;3.30;;;1.10;;
77384;SDS011;66443;49.122;8.346;2023-09-19T10:30:40;1.67;;;1.13;;
77384;SDS011;66443;49.122;8.346;2023-09-19T10:33:09;2.50;;;1.10;;
77384;SDS011;66443;49.122;8.346;2023-09-19T10:35:34;2.53;;;1.10;;
77384;SDS011;66443;49.122;8.346;2023-09-19T10:38:03;3.03;;;1.40;;
77384;SDS011;66443;49.122;8.346;2023-09-19T10:40:29;2.00;;;1.03;;
77384;SDS011;66443;49.122;8.346;2023-09-19T10:43:18;2.53;;;1.13;;
77384;SDS011;66443;49.122;8.346;2023-09-19T10:45:44;1.07;;;1.00;;
77384;SDS011;66443;49.122;8.346;2023-09-19T10:48:09;3.30;;;1.00;;
77384;SDS011;66443;49.122;8.346;2023-09-19T10:53:20;3.00;;;1.27;;
77384;SDS011;66443;49.122;8.346;2023-09-19T10:55:50;1.97;;;1.10;;
77384;SDS011;66443;49.122;8.346;2023-09-19T10:58:24;1.77;;;1.00;;
77384;SDS011;66443;49.122;8.346;2023-09-19T11:00:51;2.33;;;1.00;;
77384;SDS011;66443;49.122;8.346;2023-09-19T11:03:20;2.13;;;1.20;;
77384;SDS011;66443;49.122;8.346;2023-09-19T11:06:11;1.20;;;0.70;;
77384;SDS011;66443;49.122;8.346;2023-09-19T11:08:58;1.77;;;1.00;;
77384;SDS011;66443;49.122;8.346;2023-09-19T11:14:28;1.87;;;1.03;;
77384;SDS011;66443;49.122;8.346;2023-09-19T11:17:54;2.70;;;1.13;;
77384;SDS011;66443;49.122;8.346;2023-09-19T11:30:30;3.07;;;1.20;;
77384;SDS011;66443;49.122;8.346;2023-09-19T11:43:48;2.60;;;1.10;;
77384;SDS011;66443;49.122;8.346;2023-09-19T11:46:13;1.40;;;1.00;;
77384;SDS011;66443;49.122;8.346;2023-09-19T11:48:41;3.17;;;1.10;;
77384;SDS011;66443;49.122;8.346;2023-09-19T11:51:12;2.40;;;1.33;;
77384;SDS011;66443;49.122;8.346;2023-09-19T11:53:45;3.20;;;1.40;;
77384;SDS011;66443;49.122;8.346;2023-09-19T11:56:10;1.57;;;1.07;;
77384;SDS011;66443;49.122;8.346;2023-09-19T11:58:36;4.57;;;1.07;;
77384;SDS011;66443;49.122;8.346;2023-09-19T12:01:02;1.63;;;1.17;;
77384;SDS011;66443;49.122;8.346;2023-09-19T12:03:32;2.57;;;1.10;;
77384;SDS011;66443;49.122;8.346;2023-09-19T12:05:59;1.23;;;0.90;;
77384;SDS011;66443;49.122;8.346;2023-09-19T12:08:27;2.10;;;0.93;;
77384;SDS011;66443;49.122;8.346;2023-09-19T12:10:53;2.07;;;0.90;;
77384;SDS011;66443;49.122;8.346;2023-09-19T12:13:18;2.38;;;0.95;;
77384;SDS011;66443;49.122;8.346;2023-09-19T12:15:43;1.73;;;0.80;;
77384;SDS011;66443;49.122;8.346;2023-09-19T12:18:10;0.93;;;0.73;;
77384;SDS011;66443;49.122;8.346;2023-09-19T12:20:44;1.48;;;1.25;;
77384;SDS011;66443;49.122;8.346;2023-09-19T12:23:13;1.93;;;1.20;;
77384;SDS011;66443;49.122;8.346;2023-09-19T12:25:42;2.63;;;1.00;;
77384;SDS011;66443;49.122;8.346;2023-09-19T12:28:11;1.87;;;0.97;;
77384;SDS011;66443;49.122;8.346;2023-09-19T12:30:36;1.58;;;1.30;;
77384;SDS011;66443;49.122;8.346;2023-09-19T12:33:02;5.07;;;1.20;;
77384;SDS011;66443;49.122;8.346;2023-09-19T12:35:28;1.67;;;1.10;;
77384;SDS011;66443;49.122;8.346;2023-09-19T12:37:55;4.88;;;0.93;;
77384;SDS011;66443;49.122;8.346;2023-09-19T12:40:21;1.83;;;1.00;;
77384;SDS011;66443;49.122;8.346;2023-09-19T12:42:48;1.92;;;0.88;;
77384;SDS011;66443;49.122;8.346;2023-09-19T12:45:13;1.55;;;1.02;;
77384;SDS011;66443;49.122;8.346;2023-09-19T12:47:40;1.67;;;1.02;;
77384;SDS011;66443;49.122;8.346;2023-09-19T12:52:38;1.85;;;0.77;;
77384;SDS011;66443;49.122;8.346;2023-09-19T12:55:04;1.17;;;1.08;;
77384;SDS011;66443;49.122;8.346;2023-09-19T12:57:30;2.33;;;1.30;;
77384;SDS011;66443;49.122;8.346;2023-09-19T12:59:59;1.55;;;1.00;;
77384;SDS011;66443;49.122;8.346;2023-09-19T13:02:24;1.50;;;0.90;;
77384;SDS011;66443;49.122;8.346;2023-09-19T13:04:54;2.20;;;1.10;;
77384;SDS011;66443;49.122;8.346;2023-09-19T13:07:44;2.47;;;1.00;;
77384;SDS011;66443;49.122;8.346;2023-09-19T13:10:10;1.80;;;0.90;;
77384;SDS011;66443;49.122;8.346;2023-09-19T13:12:39;2.20;;;0.90;;
77384;SDS011;66443;49.122;8.346;2023-09-19T13:15:10;1.67;;;1.10;;
77384;SDS011;66443;49.122;8.346;2023-09-19T13:17:45;1.20;;;1.00;;
77384;SDS011;66443;49.122;8.346;2023-09-19T13:20:21;1.23;;;1.13;;
77384;SDS011;66443;49.122;8.346;2023-09-19T13:22:49;1.92;;;1.00;;
77384;SDS011;66443;49.122;8.346;2023-09-19T13:25:18;2.08;;;1.85;;
77384;SDS011;66443;49.122;8.346;2023-09-19T13:27:45;1.17;;;1.08;;
77384;SDS011;66443;49.122;8.346;2023-09-19T13:30:11;1.40;;;0.90;;
77384;SDS011;66443;49.122;8.346;2023-09-19T13:32:37;1.05;;;0.85;;
77384;SDS011;66443;49.122;8.346;2023-09-19T13:35:04;1.08;;;0.90;;
77384;SDS011;66443;49.122;8.346;2023-09-19T13:37:30;0.98;;;0.88;;
77384;SDS011;66443;49.122;8.346;2023-09-19T13:39:55;1.17;;;0.90;;
77384;SDS011;66443;49.122;8.346;2023-09-19T13:42:22;1.88;;;1.10;;
77384;SDS011;66443;49.122;8.346;2023-09-19T13:44:47;1.02;;;0.88;;
77384;SDS011;66443;49.122;8.346;2023-09-19T13:47:13;3.42;;;1.00;;
77384;SDS011;66443;49.122;8.346;2023-09-19T13:49:40;1.40;;;1.10;;
77384;SDS011;66443;49.122;8.346;2023-09-19T13:52:05;1.02;;;0.90;;
77384;SDS011;66443;49.122;8.346;2023-09-19T13:54:32;0.82;;;0.82;;
77384;SDS011;66443;49.122;8.346;2023-09-19T13:56:57;1.17;;;0.90;;
77384;SDS011;66443;49.122;8.346;2023-09-19T13:59:22;1.40;;;1.10;;
77384;SDS011;66443;49.122;8.346;2023-09-19T14:01:51;1.85;;;0.90;;
77384;SDS011;66443;49.122;8.346;2023-09-19T14:04:18;1.95;;;0.95;;
77384;SDS011;66443;49.122;8.346;2023-09-19T14:06:43;3.93;;;1.10;;
77384;SDS011;66443;49.122;8.346;2023-09-19T14:09:09;1.63;;;1.10;;
77384;SDS011;66443;49.122;8.346;2023-09-19T14:11:36;1.73;;;1.05;;
77384;SDS011;66443;49.122;8.346;2023-09-19T14:14:02;1.33;;;1.08;;
77384;SDS011;66443;49.122;8.346;2023-09-19T14:16:27;1.23;;;1.00;;
77384;SDS011;66443;49.122;8.346;2023-09-19T14:18:55;1.15;;;1.05;;
77384;SDS011;66443;49.122;8.346;2023-09-19T14:21:20;1.30;;;0.82;;
77384;SDS011;66443;49.122;8.346;2023-09-19T14:23:45;0.98;;;0.75;;
77384;SDS011;66443;49.122;8.346;2023-09-19T14:26:11;1.88;;;0.90;;
77384;SDS011;66443;49.122;8.346;2023-09-19T14:28:36;2.65;;;1.08;;
77384;SDS011;66443;49.122;8.346;2023-09-19T14:31:05;1.40;;;0.80;;
77384;SDS011;66443;49.122;8.346;2023-09-19T14:33:31;1.13;;;0.95;;
77384;SDS011;66443;49.122;8.346;2023-09-19T14:35:56;0.90;;;0.90;;
77384;SDS011;66443;49.122;8.346;2023-09-19T14:38:21;1.75;;;0.90;;
77384;SDS011;66443;49.122;8.346;2023-09-19T14:40:46;1.00;;;0.80;;
77384;SDS011;66443;49.122;8.346;2023-09-19T14:43:14;0.80;;;0.80;;
77384;SDS011;66443;49.122;8.346;2023-09-19T14:45:40;0.88;;;0.68;;
77384;SDS011;66443;49.122;8.346;2023-09-19T14:48:05;1.05;;;0.90;;
77384;SDS011;66443;49.122;8.346;2023-09-19T14:50:31;1.02;;;0.90;;
77384;SDS011;66443;49.122;8.346;2023-09-19T14:52:56;1.17;;;0.85;;
77384;SDS011;66443;49.122;8.346;2023-09-19T14:55:21;1.35;;;0.68;;
77384;SDS011;66443;49.122;8.346;2023-09-19T14:57:51;0.93;;;0.90;;
77384;SDS011;66443;49.122;8.346;2023-09-19T15:00:17;1.33;;;0.95;;
77384;SDS011;66443;49.122;8.346;2023-09-19T15:02:43;0.80;;;0.77;;
77384;SDS011;66443;49.122;8.346;2023-09-19T15:05:10;1.70;;;1.02;;
77384;SDS011;66443;49.122;8.346;2023-09-19T15:07:36;1.02;;;0.73;;
77384;SDS011;66443;49.122;8.346;2023-09-19T15:10:05;0.80;;;0.75;;
77384;SDS011;66443;49.122;8.346;2023-09-19T15:12:32;1.55;;;0.88;;
77384;SDS011;66443;49.122;8.346;2023-09-19T15:14:58;1.00;;;0.90;;
77384;SDS011;66443;49.122;8.346;2023-09-19T15:17:23;1.45;;;0.82;;
77384;SDS011;66443;49.122;8.346;2023-09-19T15:19:50;1.98;;;1.00;;
77384;SDS011;66443;49.122;8.346;2023-09-19T15:22:15;0.80;;;0.80;;
77384;SDS011;66443;49.122;8.346;2023-09-19T15:24:41;1.63;;;1.30;;
77384;SDS011;66443;49.122;8.346;2023-09-19T15:27:06;1.03;;;1.03;;
77384;SDS011;66443;49.122;8.346;2023-09-19T15:29:31;1.05;;;0.88;;
77384;SDS011;66443;49.122;8.346;2023-09-19T15:31:57;1.58;;;1.42;;
77384;SDS011;66443;49.122;8.346;2023-09-19T15:34:26;0.70;;;0.70;;